Hearne, TX

11:34 PM CST on November 11, 2019 (GMT -0600)
Hearne

Weather History for KLHB - September, 2019

Change the Weather History Date:

Sunday, September 29, 2019

  Actual Average (KCLL) Record (KCLL)
Temperature  
Mean Temperature 88 °F -  
Max Temperature 97 °F 85 °F 100 °F (2011)
Min Temperature 79 °F 62 °F 46 °F (1967)
Cooling Degree Days 22    
Growing Degree Days 38 (Base 50)    
Moisture  
Dew Point 72 °F    
Average Humidity 67    
Maximum Humidity 89    
Minimum Humidity 38    
Precipitation  
Precipitation 0.00 in - - ()
Sea Level Pressure  
Sea Level Pressure 30.00 in    
Wind  
Wind Speed 7 mph ()    
Max Wind Speed 14 mph    
Max Gust Speed 23 mph    
Visibility 10.0 miles    
Events      
Averages and records for this station are not official NWS values.
T = Trace of Precipitation, MM = Missing Value Source: Averaged Metar Reports

Daily Weather History Graph

Daily Weather History Graph

Search for Another Location

Airport or City:

Astronomy

Sep. 29, 2019 Rise Set
Actual Time 7:18 AM CDT 7:14 PM CDT
Civil Twilight 6:54 AM CDT 7:38 PM CDT
Nautical Twilight 6:26 AM CDT 8:06 PM CDT
Astronomical Twilight 5:58 AM CDT 8:34 PM CDT
Moon 8:10 AM CDT (9/29) 8:18 PM CDT (9/29)
Length of Visible Light 12h 43m
Length of Day
11h 55m
New Moon, 1% of the Moon is Illuminated
Sep 29
New Moon
Oct 5
First Quarter
Oct 13
Full
Oct 21
Last Quarter
Oct 27
New

Hourly Weather History & Observations

Time (CDT) Temp. Heat Index Dew Point Humidity Pressure Visibility Wind Dir Wind Speed Gust Speed Precip Events Conditions
12:15 AM 81.1 °F 85.8 °F 72.5 °F 75% 29.96 in 10.0 mi SE 8.1 mph - N/A   Clear
12:35 AM 80.8 °F 85.2 °F 72.7 °F 76% 29.97 in 10.0 mi SE 8.1 mph - N/A   Scattered Clouds
12:55 AM 80.6 °F 85.4 °F 73.4 °F 79% 29.97 in 10.0 mi SE 8.1 mph - N/A   Scattered Clouds
1:15 AM 80.4 °F 85.0 °F 73.4 °F 79% 29.97 in 10.0 mi SE 6.9 mph - N/A   Mostly Cloudy
1:35 AM 80.4 °F 85.1 °F 73.6 °F 80% 29.97 in 10.0 mi SE 5.8 mph - N/A   Overcast
1:55 AM 80.2 °F 84.9 °F 73.9 °F 81% 29.98 in 10.0 mi SE 4.6 mph - N/A   Overcast
2:15 AM 79.7 °F - 74.3 °F 83% 29.98 in 10.0 mi SE 4.6 mph - N/A   Overcast
2:35 AM 79.9 °F - 74.7 °F 84% 29.98 in 10.0 mi SE 3.5 mph - N/A   Overcast
2:55 AM 80.2 °F 85.5 °F 75.2 °F 85% 29.98 in 10.0 mi SE 4.6 mph - N/A   Overcast
3:15 AM 80.2 °F 85.7 °F 75.6 °F 86% 29.98 in 10.0 mi SE 6.9 mph - N/A   Overcast
3:35 AM 80.1 °F 85.2 °F 75.6 °F 86% 29.97 in 10.0 mi SE 5.8 mph - N/A   Overcast
3:55 AM 79.9 °F - 75.6 °F 87% 29.97 in 10.0 mi SE 6.9 mph - N/A   Overcast
4:15 AM 79.7 °F - 75.7 °F 88% 29.98 in 10.0 mi SE 5.8 mph - N/A   Mostly Cloudy
4:35 AM 79.7 °F - 75.7 °F 88% 29.98 in 10.0 mi SE 6.9 mph - N/A   Overcast
4:55 AM 79.3 °F - 75.6 °F 88% 29.98 in 10.0 mi SE 6.9 mph - N/A   Scattered Clouds
5:15 AM 79.3 °F - 75.6 °F 88% 29.99 in 10.0 mi SE 4.6 mph - N/A   Scattered Clouds
5:35 AM 79.3 °F - 75.6 °F 88% 30.00 in 10.0 mi SE 3.5 mph - N/A   Mostly Cloudy
5:55 AM 79.0 °F - 75.4 °F 89% 30.00 in 10.0 mi Calm Calm - N/A   Scattered Clouds
6:15 AM 79.0 °F - 75.6 °F 89% 30.01 in 10.0 mi ESE 3.5 mph - N/A   Mostly Cloudy
6:35 AM 79.3 °F - 75.7 °F 89% 30.01 in 10.0 mi SE 3.5 mph - N/A   Overcast
6:55 AM 79.9 °F - 75.9 °F 88% 30.01 in 10.0 mi SE 3.5 mph - N/A   Overcast
7:15 AM 79.7 °F - 75.6 °F 87% 30.02 in 10.0 mi ESE 4.6 mph - N/A   Overcast
7:35 AM 79.7 °F - 75.2 °F 86% 30.02 in 10.0 mi SE 4.6 mph - N/A   Overcast
7:55 AM 79.7 °F - 75.2 °F 86% 30.03 in 10.0 mi ESE 5.8 mph - N/A   Overcast
8:15 AM 79.9 °F - 75.2 °F 86% 30.03 in 10.0 mi ESE 5.8 mph - N/A   Overcast
8:35 AM 80.1 °F 84.9 °F 74.8 °F 84% 30.04 in 10.0 mi SE 4.6 mph - N/A   Overcast
8:55 AM 80.6 °F 86.2 °F 75.2 °F 84% 30.05 in 10.0 mi SE 6.9 mph - N/A   Overcast
9:15 AM 81.5 °F 88.0 °F 75.4 °F 82% 30.05 in 10.0 mi ESE 5.8 mph - N/A   Overcast
9:35 AM 82.0 °F 89.1 °F 75.6 °F 81% 30.05 in 10.0 mi SE 9.2 mph 16.1 mph N/A   Overcast
9:55 AM 82.9 °F 90.5 °F 75.4 °F 78% 30.06 in 10.0 mi SE 5.8 mph - N/A   Overcast
10:15 AM 84.4 °F 93.1 °F 75.6 °F 75% 30.06 in 10.0 mi SSE 9.2 mph - N/A   Overcast
10:35 AM 84.9 °F 93.3 °F 74.8 °F 72% 30.06 in 10.0 mi SSE 9.2 mph 17.3 mph N/A   Mostly Cloudy
10:55 AM 84.6 °F 92.8 °F 75.2 °F 73% 30.06 in 10.0 mi SE 9.2 mph - N/A   Mostly Cloudy
11:15 AM 85.1 °F 94.1 °F 75.6 °F 73% 30.05 in 10.0 mi SE 9.2 mph - N/A   Overcast
11:35 AM 87.8 °F 97.6 °F 75.0 °F 66% 30.05 in 10.0 mi SE 10.4 mph - N/A   Scattered Clouds
11:55 AM 88.9 °F 98.1 °F 74.3 °F 62% 30.05 in 10.0 mi SE 9.2 mph 18.4 mph N/A   Scattered Clouds
12:15 PM 89.8 °F 99.7 °F 74.5 °F 61% 30.04 in 10.0 mi SSE 13.8 mph 18.4 mph N/A   Scattered Clouds
12:35 PM 91.6 °F 101.1 °F 73.8 °F 56% 30.03 in 10.0 mi SE 12.7 mph 16.1 mph N/A   Scattered Clouds
12:55 PM 92.5 °F 101.9 °F 73.4 °F 54% 30.03 in 10.0 mi SSE 11.5 mph - N/A   Scattered Clouds
1:15 PM 92.3 °F 99.7 °F 71.6 °F 51% 30.01 in 10.0 mi SE 11.5 mph 17.3 mph N/A   Mostly Cloudy
1:35 PM 93.7 °F 99.9 °F 70.2 °F 46% 30.00 in 10.0 mi ESE 10.4 mph 20.7 mph N/A   Scattered Clouds
1:55 PM 94.1 °F 100.0 °F 70.0 °F 45% 29.99 in 10.0 mi SE 11.5 mph 19.6 mph N/A   Scattered Clouds
2:15 PM 95.5 °F 101.2 °F 69.1 °F 42% 29.98 in 10.0 mi SE 13.8 mph - N/A   Clear
2:35 PM 94.3 °F 99.3 °F 68.4 °F 43% 29.97 in 10.0 mi SE 13.8 mph 18.4 mph N/A   Scattered Clouds
2:55 PM 95.0 °F 100.1 °F 68.7 °F 42% 29.96 in 10.0 mi SSE 13.8 mph - N/A   Scattered Clouds
3:15 PM 95.0 °F 99.5 °F 68.2 °F 41% 29.96 in 10.0 mi SE 5.8 mph 23.0 mph N/A   Scattered Clouds
3:35 PM 95.5 °F 99.4 °F 67.3 °F 39% 29.96 in 10.0 mi ESE 9.2 mph 18.4 mph N/A   Clear
3:55 PM 96.8 °F 101.8 °F 67.8 °F 39% 29.95 in 10.0 mi SE 9.2 mph 18.4 mph N/A   Scattered Clouds
4:15 PM 96.8 °F 101.2 °F 67.1 °F 38% 29.95 in 10.0 mi ESE 9.2 mph 16.1 mph N/A   Scattered Clouds
4:35 PM 93.6 °F 98.4 °F 68.5 °F 44% 29.95 in 10.0 mi SE 9.2 mph 19.6 mph N/A   Scattered Clouds
4:55 PM 93.2 °F 97.7 °F 68.0 °F 44% 29.95 in 10.0 mi ESE 9.2 mph 23.0 mph N/A   Clear
5:15 PM 92.7 °F 96.7 °F 68.0 °F 44% 29.95 in 10.0 mi SE 11.5 mph 17.3 mph N/A   Scattered Clouds
5:35 PM 93.6 °F 97.4 °F 67.6 °F 42% 29.95 in 10.0 mi ESE 9.2 mph 17.3 mph N/A   Scattered Clouds
5:55 PM 93.0 °F 96.4 °F 66.9 °F 42% 29.95 in 10.0 mi ESE 9.2 mph - N/A   Clear
6:15 PM 92.5 °F 95.9 °F 67.3 °F 43% 29.95 in 10.0 mi SE 9.2 mph - N/A   Clear
6:35 PM 91.6 °F 94.8 °F 66.6 °F 44% 29.95 in 10.0 mi SE 8.1 mph - N/A   Clear
6:55 PM 90.1 °F 92.7 °F 66.4 °F 45% 29.96 in 10.0 mi SE 8.1 mph - N/A   Clear
7:15 PM 89.1 °F 91.7 °F 66.6 °F 47% 29.96 in 10.0 mi SE 8.1 mph - N/A   Clear
7:35 PM 88.2 °F 90.9 °F 66.9 °F 49% 29.96 in 10.0 mi SE 6.9 mph - N/A   Clear
7:55 PM 87.1 °F 90.9 °F 68.7 °F 54% 29.97 in 10.0 mi ESE 3.5 mph - N/A   Clear
8:15 PM 86.4 °F 91.1 °F 70.0 °F 58% 29.97 in 10.0 mi ESE 5.8 mph - N/A   Clear
8:35 PM 85.8 °F 90.8 °F 70.7 °F 60% 29.98 in 10.0 mi ESE 4.6 mph - N/A   Clear
8:55 PM 85.1 °F 90.1 °F 70.9 °F 62% 29.99 in 10.0 mi ESE 5.8 mph - N/A   Clear
9:15 PM 84.4 °F 89.4 °F 71.1 °F 64% 30.00 in 10.0 mi ESE 5.8 mph - N/A   Clear
9:35 PM 84.2 °F 89.6 °F 71.6 °F 66% 30.01 in 10.0 mi SE 6.9 mph - N/A   Clear
9:55 PM 84.2 °F 89.6 °F 71.6 °F 66% 30.02 in 10.0 mi SE 10.4 mph - N/A   Clear
10:15 PM 83.3 °F 88.4 °F 71.6 °F 68% 30.03 in 10.0 mi SE 9.2 mph - N/A   Clear
10:35 PM 82.6 °F 87.6 °F 71.8 °F 70% 30.03 in 10.0 mi SE 8.1 mph - N/A   Clear
10:55 PM 82.0 °F 86.7 °F 71.8 °F 71% 30.03 in 10.0 mi SE 9.2 mph - N/A   Clear
11:15 PM 81.5 °F 85.9 °F 71.8 °F 72% 30.03 in 10.0 mi SE 8.1 mph - N/A   Clear
11:35 PM 80.6 °F 84.6 °F 71.8 °F 74% 30.03 in 10.0 mi SE 6.9 mph - N/A   Clear
11:55 PM 79.9 °F - 71.8 °F 76% 30.03 in 10.0 mi SE 6.9 mph - N/A   Clear